Time;durP1;ratioP1;P1;durP2;ratioP2;P2;SDS_P1;SDS_P2;PMS_P1;PMS_P2;Temp;Humidity;BMP_temperature;BMP_pressure;BME280_temperature;BME280_humidity;BME280_pressure;Samples;Min_cycle;Max_cycle;Signal;HPM_P1;HPM_P2
2023/08/31 00:01:41;;;;;;;1.63;1.40;;;;;;;;;;4992373;28;20030;-87
2023/08/31 00:04:14;;;;;;;2.08;1.40;;;;;;;;;;4989209;28;20042;-86
2023/08/31 00:06:40;;;;;;;1.40;1.30;;;;;;;;;;4995667;28;20045;-87
2023/08/31 00:09:09;;;;;;;1.60;1.13;;;;;;;;;;4998275;28;20038;-87
2023/08/31 00:11:35;;;;;;;1.73;1.40;;;;;;;;;;4990433;28;20035;-87
2023/08/31 00:14:01;;;;;;;3.92;1.50;;;;;;;;;;5007625;28;20121;-85
2023/08/31 00:16:26;;;;;;;2.17;1.25;;;;;;;;;;4978330;28;20073;-86
2023/08/31 00:18:52;;;;;;;1.77;1.00;;;;;;;;;;4979737;28;20034;-85
2023/08/31 00:21:18;;;;;;;2.45;1.33;;;;;;;;;;4987234;28;20046;-86
2023/08/31 00:23:43;;;;;;;1.90;1.17;;;;;;;;;;4977467;28;20034;-86
2023/08/31 00:26:10;;;;;;;1.20;1.10;;;;;;;;;;4995000;28;20481;-86
2023/08/31 00:28:36;;;;;;;1.83;1.30;;;;;;;;;;4991856;28;20029;-86
2023/08/31 00:31:04;;;;;;;1.45;1.30;;;;;;;;;;4974366;28;20408;-86
2023/08/31 00:33:30;;;;;;;2.40;1.30;;;;;;;;;;4987425;28;20069;-86
2023/08/31 00:36:01;;;;;;;5.70;1.33;;;;;;;;;;4988748;28;20072;-87
2023/08/31 00:38:27;;;;;;;4.32;1.30;;;;;;;;;;4993601;28;20404;-86
2023/08/31 00:40:54;;;;;;;3.97;1.15;;;;;;;;;;5004021;28;20045;-86
2023/08/31 00:43:20;;;;;;;3.38;1.20;;;;;;;;;;4986129;28;20073;-85
2023/08/31 00:45:50;;;;;;;2.47;1.20;;;;;;;;;;4991555;28;20125;-86
2023/08/31 00:48:16;;;;;;;2.75;1.40;;;;;;;;;;4991886;28;20061;-85
2023/08/31 00:50:46;;;;;;;2.05;1.15;;;;;;;;;;4985575;28;20417;-85
2023/08/31 00:53:12;;;;;;;2.78;1.20;;;;;;;;;;4978964;28;20419;-85
2023/08/31 00:55:39;;;;;;;1.38;1.27;;;;;;;;;;4983924;28;20041;-85
2023/08/31 00:58:06;;;;;;;1.20;1.08;;;;;;;;;;4977239;28;20484;-88
2023/08/31 01:01:00;;;;;;;1.73;1.40;;;;;;;;;;4976608;28;20045;-86
2023/08/31 01:03:29;;;;;;;2.00;1.50;;;;;;;;;;4975712;28;20109;-87
2023/08/31 01:06:06;;;;;;;1.60;1.27;;;;;;;;;;4990225;28;20030;-86
2023/08/31 01:08:38;;;;;;;1.77;1.30;;;;;;;;;;4981377;28;20026;-85
2023/08/31 01:11:16;;;;;;;1.77;1.20;;;;;;;;;;4991248;28;20034;-87
2023/08/31 01:13:47;;;;;;;2.13;1.30;;;;;;;;;;4991870;28;20400;-87
2023/08/31 01:16:15;;;;;;;2.25;1.23;;;;;;;;;;4989521;28;20034;-86
2023/08/31 01:18:41;;;;;;;1.70;1.30;;;;;;;;;;4999953;28;20026;-86
2023/08/31 01:21:16;;;;;;;1.80;1.27;;;;;;;;;;4973768;28;20458;-86
2023/08/31 01:24:02;;;;;;;1.88;1.40;;;;;;;;;;5002186;28;20038;-88
2023/08/31 01:26:28;;;;;;;1.63;1.20;;;;;;;;;;4991452;28;20057;-86
2023/08/31 01:28:55;;;;;;;1.35;1.10;;;;;;;;;;5015078;28;20434;-85
2023/08/31 01:31:21;;;;;;;1.63;1.30;;;;;;;;;;4990541;28;20034;-85
2023/08/31 01:33:48;;;;;;;3.42;1.58;;;;;;;;;;5004551;28;20030;-86
2023/08/31 01:36:37;;;;;;;3.42;1.25;;;;;;;;;;4988217;28;20106;-87
2023/08/31 01:39:19;;;;;;;1.80;1.30;;;;;;;;;;5008118;28;20033;-85
2023/08/31 01:41:51;;;;;;;2.45;1.10;;;;;;;;;;4970922;28;20089;-87
2023/08/31 01:44:18;;;;;;;1.50;1.13;;;;;;;;;;4998135;28;20050;-85
2023/08/31 01:46:46;;;;;;;2.58;1.10;;;;;;;;;;5001877;28;20145;-85
2023/08/31 01:49:12;;;;;;;2.28;1.40;;;;;;;;;;4985087;28;20030;-85
2023/08/31 01:51:38;;;;;;;1.73;1.25;;;;;;;;;;4985533;28;20030;-85
2023/08/31 01:54:05;;;;;;;1.55;1.20;;;;;;;;;;4976935;28;20034;-84
2023/08/31 01:56:31;;;;;;;1.75;1.20;;;;;;;;;;4984170;28;20389;-86
2023/08/31 01:58:57;;;;;;;2.33;1.20;;;;;;;;;;4980991;28;20481;-85
2023/08/31 02:01:23;;;;;;;1.90;1.17;;;;;;;;;;4983967;28;20053;-85
2023/08/31 02:03:49;;;;;;;1.35;1.10;;;;;;;;;;4963270;28;20042;-86
2023/08/31 02:06:14;;;;;;;2.13;1.40;;;;;;;;;;4986025;28;20484;-85
2023/08/31 02:08:40;;;;;;;1.40;1.20;;;;;;;;;;4963967;28;20468;-85
2023/08/31 02:11:05;;;;;;;2.40;1.30;;;;;;;;;;4971763;28;20461;-86
2023/08/31 02:13:30;;;;;;;2.88;1.50;;;;;;;;;;4987884;28;20049;-87
2023/08/31 02:15:56;;;;;;;1.50;1.25;;;;;;;;;;4987123;28;20022;-86
2023/08/31 02:18:21;;;;;;;3.50;1.30;;;;;;;;;;4991482;28;20078;-86
2023/08/31 02:20:47;;;;;;;2.92;1.30;;;;;;;;;;4996914;28;20033;-85
2023/08/31 02:23:13;;;;;;;2.22;1.20;;;;;;;;;;5004959;28;20022;-85
2023/08/31 02:25:39;;;;;;;1.80;1.40;;;;;;;;;;5005670;28;20068;-85
2023/08/31 02:28:04;;;;;;;1.88;1.30;;;;;;;;;;4989030;28;20026;-85
2023/08/31 02:30:30;;;;;;;1.45;1.20;;;;;;;;;;4994123;28;20117;-87
2023/08/31 02:32:56;;;;;;;6.00;1.27;;;;;;;;;;4980849;28;20018;-86
2023/08/31 02:35:22;;;;;;;2.60;1.30;;;;;;;;;;5000424;28;20044;-86
2023/08/31 02:37:48;;;;;;;1.60;1.10;;;;;;;;;;5001343;28;20018;-88
2023/08/31 02:40:13;;;;;;;6.25;1.40;;;;;;;;;;4982906;28;20058;-88
2023/08/31 02:42:39;;;;;;;2.45;1.30;;;;;;;;;;5002624;28;20042;-87
2023/08/31 02:45:05;;;;;;;1.40;1.20;;;;;;;;;;4995534;28;20022;-85
2023/08/31 02:47:31;;;;;;;2.47;1.40;;;;;;;;;;5000245;28;20035;-88
2023/08/31 02:49:56;;;;;;;2.70;1.40;;;;;;;;;;4984887;28;20117;-86
2023/08/31 02:52:22;;;;;;;1.50;1.20;;;;;;;;;;4987329;28;20395;-85
2023/08/31 02:54:47;;;;;;;1.45;1.30;;;;;;;;;;4965579;28;20033;-87
2023/08/31 02:57:15;;;;;;;4.40;1.23;;;;;;;;;;4996423;28;20032;-87
2023/08/31 02:59:42;;;;;;;2.85;1.40;;;;;;;;;;4995206;28;20066;-85
2023/08/31 03:02:08;;;;;;;2.05;1.20;;;;;;;;;;4990864;28;20041;-86
2023/08/31 03:04:34;;;;;;;1.60;1.30;;;;;;;;;;4971354;28;20031;-86
2023/08/31 03:07:00;;;;;;;1.75;1.30;;;;;;;;;;4992382;28;20031;-85
2023/08/31 03:09:25;;;;;;;2.90;1.30;;;;;;;;;;4994177;28;20052;-85
2023/08/31 03:11:51;;;;;;;2.28;1.50;;;;;;;;;;4973595;28;20051;-85
2023/08/31 03:14:16;;;;;;;1.95;1.30;;;;;;;;;;4986890;28;20127;-85
2023/08/31 03:16:42;;;;;;;4.88;1.38;;;;;;;;;;4980695;28;20037;-86
2023/08/31 03:19:07;;;;;;;2.85;1.40;;;;;;;;;;4992706;28;20567;-86
2023/08/31 03:21:33;;;;;;;2.10;1.20;;;;;;;;;;4971343;28;20030;-86
2023/08/31 03:23:59;;;;;;;3.35;1.35;;;;;;;;;;4996000;28;20496;-86
2023/08/31 03:26:25;;;;;;;1.45;1.30;;;;;;;;;;4987945;28;20065;-86
2023/08/31 03:28:50;;;;;;;2.22;1.30;;;;;;;;;;4992042;28;20026;-86
2023/08/31 03:31:16;;;;;;;1.30;1.17;;;;;;;;;;4983245;28;20401;-86
2023/08/31 03:33:42;;;;;;;2.45;1.30;;;;;;;;;;4984615;28;20136;-86
2023/08/31 03:36:08;;;;;;;1.73;1.35;;;;;;;;;;4988371;28;20081;-85
2023/08/31 03:38:37;;;;;;;1.80;1.17;;;;;;;;;;4995094;28;20030;-85
2023/08/31 03:41:03;;;;;;;3.17;1.40;;;;;;;;;;4983922;28;20057;-88
2023/08/31 03:43:29;;;;;;;2.53;1.30;;;;;;;;;;4983383;28;20485;-88
2023/08/31 03:45:58;;;;;;;2.70;1.40;;;;;;;;;;4996657;28;20559;-87
2023/08/31 03:48:24;;;;;;;1.73;1.40;;;;;;;;;;4997285;28;20026;-87
2023/08/31 03:50:54;;;;;;;2.10;1.40;;;;;;;;;;4978939;28;20508;-87
2023/08/31 03:53:21;;;;;;;1.80;1.33;;;;;;;;;;4987511;28;20053;-86
2023/08/31 03:55:48;;;;;;;1.52;1.20;;;;;;;;;;4966490;28;20042;-88
2023/08/31 03:58:14;;;;;;;1.65;1.25;;;;;;;;;;4983409;28;20048;-87
2023/08/31 04:00:42;;;;;;;2.80;1.48;;;;;;;;;;4964755;28;20033;-86
2023/08/31 04:03:09;;;;;;;2.22;1.50;;;;;;;;;;4985622;28;20070;-86
2023/08/31 04:05:36;;;;;;;1.90;1.50;;;;;;;;;;4980691;28;20061;-85
2023/08/31 04:08:02;;;;;;;1.70;1.50;;;;;;;;;;4993940;28;20037;-86
2023/08/31 04:10:29;;;;;;;1.60;1.40;;;;;;;;;;4977792;28;20034;-88
2023/08/31 04:12:55;;;;;;;3.67;1.63;;;;;;;;;;4943772;28;20090;-86
2023/08/31 04:15:21;;;;;;;2.35;1.50;;;;;;;;;;4977157;28;20469;-86
2023/08/31 04:17:47;;;;;;;2.22;1.50;;;;;;;;;;4992787;28;20048;-85
2023/08/31 04:20:12;;;;;;;2.58;1.65;;;;;;;;;;4992762;28;20376;-84
2023/08/31 04:22:38;;;;;;;4.97;1.80;;;;;;;;;;4985689;28;20039;-85
2023/08/31 04:25:04;;;;;;;3.47;1.70;;;;;;;;;;4986380;28;20027;-84
2023/08/31 04:27:32;;;;;;;3.67;1.90;;;;;;;;;;4992774;28;20030;-85
2023/08/31 04:30:02;;;;;;;3.00;1.88;;;;;;;;;;4991621;28;20727;-84
2023/08/31 04:32:31;;;;;;;2.20;1.70;;;;;;;;;;5003957;28;20038;-86
2023/08/31 04:34:56;;;;;;;2.50;1.98;;;;;;;;;;5007535;28;20033;-87
2023/08/31 04:37:22;;;;;;;4.00;1.83;;;;;;;;;;4998408;28;20380;-85
2023/08/31 04:39:48;;;;;;;4.03;2.00;;;;;;;;;;4997272;28;20113;-85
2023/08/31 04:42:13;;;;;;;3.13;2.00;;;;;;;;;;4992692;28;20038;-85
2023/08/31 04:44:38;;;;;;;4.07;2.00;;;;;;;;;;4991503;28;20034;-87
2023/08/31 04:47:04;;;;;;;2.58;1.80;;;;;;;;;;4997494;28;20037;-87
2023/08/31 04:49:30;;;;;;;2.47;1.90;;;;;;;;;;4995083;28;20066;-85
2023/08/31 04:51:56;;;;;;;2.95;2.00;;;;;;;;;;4992506;28;20109;-86
2023/08/31 04:54:21;;;;;;;2.28;1.92;;;;;;;;;;5004454;28;20045;-87
2023/08/31 04:56:47;;;;;;;2.67;2.00;;;;;;;;;;5007836;28;20035;-87
2023/08/31 04:59:12;;;;;;;3.70;2.20;;;;;;;;;;5003100;28;20087;-86
2023/08/31 05:01:38;;;;;;;2.85;1.88;;;;;;;;;;4991536;28;20022;-86
2023/08/31 05:04:03;;;;;;;2.10;1.80;;;;;;;;;;4984803;28;20035;-86
2023/08/31 05:06:29;;;;;;;2.88;2.03;;;;;;;;;;4967623;28;20069;-87
2023/08/31 05:08:55;;;;;;;2.92;1.92;;;;;;;;;;4994349;28;20062;-87
2023/08/31 05:11:20;;;;;;;2.45;1.70;;;;;;;;;;5009180;28;20394;-86
2023/08/31 05:13:47;;;;;;;2.70;1.90;;;;;;;;;;4986346;28;20058;-85
2023/08/31 05:16:12;;;;;;;2.38;1.80;;;;;;;;;;4999505;28;20374;-85
2023/08/31 05:18:40;;;;;;;2.25;1.80;;;;;;;;;;4997561;28;20093;-85
2023/08/31 05:21:06;;;;;;;2.97;1.77;;;;;;;;;;4994373;28;20066;-85
2023/08/31 05:23:31;;;;;;;2.58;1.92;;;;;;;;;;4990851;28;20082;-86
2023/08/31 05:25:57;;;;;;;7.32;2.15;;;;;;;;;;4988342;28;20045;-85
2023/08/31 05:28:23;;;;;;;6.18;2.03;;;;;;;;;;4976802;28;20495;-85
2023/08/31 05:30:53;;;;;;;3.42;2.00;;;;;;;;;;4998951;28;20052;-85
2023/08/31 05:33:19;;;;;;;3.30;2.50;;;;;;;;;;5007374;28;20484;-86
2023/08/31 05:35:45;;;;;;;3.22;2.08;;;;;;;;;;5001077;28;20046;-87
2023/08/31 05:38:11;;;;;;;3.13;2.10;;;;;;;;;;4993506;28;20483;-87
2023/08/31 05:40:36;;;;;;;2.33;1.90;;;;;;;;;;4984459;28;20446;-86
2023/08/31 05:43:05;;;;;;;2.42;1.80;;;;;;;;;;5003876;28;20435;-86
2023/08/31 05:45:33;;;;;;;3.65;2.15;;;;;;;;;;5001106;28;20053;-86
2023/08/31 05:47:58;;;;;;;2.30;1.60;;;;;;;;;;4992054;28;20093;-86
2023/08/31 05:50:24;;;;;;;2.22;1.70;;;;;;;;;;4975953;28;20118;-85
2023/08/31 05:52:49;;;;;;;2.20;1.60;;;;;;;;;;4997255;28;20380;-85
2023/08/31 05:55:14;;;;;;;3.95;1.60;;;;;;;;;;4997681;28;20080;-85
2023/08/31 05:57:40;;;;;;;3.10;1.80;;;;;;;;;;4996090;28;20033;-86
2023/08/31 06:00:09;;;;;;;3.78;1.80;;;;;;;;;;4991419;28;20033;-84
2023/08/31 06:02:46;;;;;;;2.42;1.80;;;;;;;;;;4988348;28;20042;-86
2023/08/31 06:05:12;;;;;;;2.42;1.55;;;;;;;;;;4995979;28;20030;-86
2023/08/31 06:07:39;;;;;;;1.85;1.48;;;;;;;;;;4993518;28;20710;-86
2023/08/31 06:10:05;;;;;;;1.70;1.50;;;;;;;;;;4985420;28;20085;-85
2023/08/31 06:12:31;;;;;;;3.58;1.52;;;;;;;;;;4985155;28;20116;-87
2023/08/31 06:14:56;;;;;;;3.50;1.55;;;;;;;;;;4987308;28;20503;-86
2023/08/31 06:17:22;;;;;;;2.47;1.63;;;;;;;;;;4973733;28;20518;-87
2023/08/31 06:19:47;;;;;;;3.47;1.58;;;;;;;;;;4990489;28;20046;-87
2023/08/31 06:22:13;;;;;;;3.75;1.80;;;;;;;;;;4990018;28;20034;-87
2023/08/31 06:24:38;;;;;;;4.28;1.67;;;;;;;;;;4995242;28;20022;-88
2023/08/31 06:27:04;;;;;;;2.35;1.50;;;;;;;;;;4995271;28;20052;-87
2023/08/31 06:29:29;;;;;;;3.25;1.60;;;;;;;;;;4973917;28;20034;-85
2023/08/31 06:31:55;;;;;;;2.72;1.77;;;;;;;;;;4990981;28;20037;-84
2023/08/31 06:34:20;;;;;;;3.15;1.70;;;;;;;;;;4990823;28;20034;-83
2023/08/31 06:36:46;;;;;;;2.70;1.70;;;;;;;;;;4998027;28;20084;-87
2023/08/31 06:39:11;;;;;;;3.38;1.80;;;;;;;;;;4984813;28;20089;-86
2023/08/31 06:41:37;;;;;;;2.70;1.73;;;;;;;;;;5006943;28;20098;-85
2023/08/31 06:44:04;;;;;;;3.35;1.60;;;;;;;;;;4989684;28;20400;-86
2023/08/31 06:46:33;;;;;;;4.22;1.55;;;;;;;;;;5004564;28;20102;-86
2023/08/31 06:48:59;;;;;;;2.17;1.50;;;;;;;;;;4998713;28;20041;-85
2023/08/31 06:51:24;;;;;;;3.45;1.50;;;;;;;;;;5001661;28;20046;-85
2023/08/31 06:53:50;;;;;;;3.10;1.30;;;;;;;;;;4997229;28;20046;-85
2023/08/31 06:56:15;;;;;;;1.63;1.30;;;;;;;;;;4998771;28;20147;-84
2023/08/31 06:58:41;;;;;;;2.22;1.40;;;;;;;;;;4993597;28;20030;-84
2023/08/31 07:01:06;;;;;;;3.85;1.60;;;;;;;;;;4995019;28;20041;-85
2023/08/31 07:03:32;;;;;;;2.58;1.90;;;;;;;;;;4996757;28;20046;-84
2023/08/31 07:05:57;;;;;;;3.67;1.92;;;;;;;;;;4995883;28;20029;-85
2023/08/31 07:08:23;;;;;;;2.80;1.50;;;;;;;;;;4994571;28;20057;-84
2023/08/31 07:10:51;;;;;;;3.45;1.50;;;;;;;;;;4983087;28;20038;-84
2023/08/31 07:13:17;;;;;;;2.63;1.50;;;;;;;;;;4992644;28;20044;-84
2023/08/31 07:15:43;;;;;;;2.17;1.40;;;;;;;;;;4998702;28;20039;-84
2023/08/31 07:18:08;;;;;;;2.38;1.50;;;;;;;;;;4979864;28;20030;-83
2023/08/31 07:20:34;;;;;;;2.55;1.40;;;;;;;;;;4984820;28;20041;-83
2023/08/31 07:22:59;;;;;;;1.80;1.40;;;;;;;;;;4982160;28;20105;-83
2023/08/31 07:25:25;;;;;;;3.47;1.50;;;;;;;;;;4998570;28;20046;-83
2023/08/31 07:27:51;;;;;;;2.28;1.48;;;;;;;;;;4977644;28;20038;-85
2023/08/31 07:30:16;;;;;;;2.28;1.48;;;;;;;;;;4993226;28;20029;-87
2023/08/31 07:32:42;;;;;;;2.28;1.65;;;;;;;;;;4984635;28;20555;-86
2023/08/31 07:35:07;;;;;;;2.08;1.40;;;;;;;;;;4968345;28;20050;-86
2023/08/31 07:37:33;;;;;;;3.33;1.38;;;;;;;;;;4992671;28;20069;-86
2023/08/31 07:39:59;;;;;;;2.33;1.50;;;;;;;;;;5012076;28;20049;-84
2023/08/31 07:42:24;;;;;;;3.35;1.40;;;;;;;;;;4991742;28;20034;-84
2023/08/31 07:44:50;;;;;;;6.10;2.30;;;;;;;;;;4994863;28;20033;-85
2023/08/31 07:47:15;;;;;;;2.60;1.45;;;;;;;;;;4999943;28;20101;-85
2023/08/31 07:49:41;;;;;;;2.65;1.70;;;;;;;;;;5006597;28;20515;-85
2023/08/31 07:52:06;;;;;;;5.72;3.10;;;;;;;;;;5003333;28;20038;-84
2023/08/31 07:54:32;;;;;;;6.05;3.40;;;;;;;;;;5003087;28;20048;-86
2023/08/31 07:56:57;;;;;;;5.45;3.00;;;;;;;;;;4995404;28;20035;-84
2023/08/31 07:59:23;;;;;;;6.88;2.30;;;;;;;;;;4993825;28;20110;-85
2023/08/31 08:01:48;;;;;;;3.60;2.22;;;;;;;;;;4977130;28;20074;-84
2023/08/31 08:04:14;;;;;;;2.90;1.80;;;;;;;;;;4998644;28;20038;-86
2023/08/31 08:06:40;;;;;;;4.15;1.80;;;;;;;;;;4999366;28;20038;-84
2023/08/31 08:09:05;;;;;;;4.13;1.70;;;;;;;;;;4994670;28;20039;-84
2023/08/31 08:11:31;;;;;;;2.83;1.90;;;;;;;;;;4973376;28;20043;-85
2023/08/31 08:13:57;;;;;;;2.53;1.70;;;;;;;;;;5004936;28;20480;-86
2023/08/31 08:16:22;;;;;;;2.75;1.70;;;;;;;;;;4999272;28;20045;-83
2023/08/31 08:18:48;;;;;;;2.05;1.50;;;;;;;;;;4993342;28;20057;-84
2023/08/31 08:21:13;;;;;;;4.47;1.80;;;;;;;;;;4968184;28;20038;-84
2023/08/31 08:23:39;;;;;;;2.55;1.70;;;;;;;;;;4999204;28;20031;-82
2023/08/31 08:26:04;;;;;;;5.28;1.90;;;;;;;;;;4997322;28;20108;-84
2023/08/31 08:28:30;;;;;;;4.60;1.65;;;;;;;;;;4992442;28;20053;-82
2023/08/31 08:30:55;;;;;;;2.88;1.98;;;;;;;;;;4990567;28;20535;-82
2023/08/31 08:33:21;;;;;;;4.75;1.80;;;;;;;;;;4986988;28;20038;-83
2023/08/31 08:35:47;;;;;;;2.28;1.50;;;;;;;;;;5000421;28;20166;-85
2023/08/31 08:38:12;;;;;;;5.03;1.70;;;;;;;;;;4999063;28;20030;-85
2023/08/31 08:40:38;;;;;;;2.42;1.50;;;;;;;;;;5000220;28;20038;-83
2023/08/31 08:43:10;;;;;;;2.95;1.88;;;;;;;;;;5005804;28;20030;-83
2023/08/31 08:45:38;;;;;;;3.15;1.80;;;;;;;;;;5004237;28;20034;-83
2023/08/31 08:48:07;;;;;;;3.58;1.80;;;;;;;;;;5001767;28;20033;-82
2023/08/31 08:50:34;;;;;;;7.72;2.38;;;;;;;;;;5004819;28;20038;-85
2023/08/31 08:53:03;;;;;;;4.00;1.90;;;;;;;;;;5014807;28;20070;-84
2023/08/31 08:55:29;;;;;;;2.25;1.45;;;;;;;;;;5000859;28;20030;-83
2023/08/31 08:57:55;;;;;;;2.08;1.20;;;;;;;;;;4987728;28;20078;-85
2023/08/31 09:00:21;;;;;;;2.17;1.20;;;;;;;;;;5008832;28;20147;-84
2023/08/31 09:02:46;;;;;;;3.97;2.33;;;;;;;;;;5007419;28;20057;-83
2023/08/31 09:05:12;;;;;;;9.23;4.72;;;;;;;;;;4987786;28;20034;-85
2023/08/31 09:07:38;;;;;;;3.33;1.88;;;;;;;;;;4999741;28;20117;-85
2023/08/31 09:10:04;;;;;;;45.38;20.40;;;;;;;;;;4999941;28;20057;-84
2023/08/31 09:12:30;;;;;;;79.00;38.42;;;;;;;;;;5006786;28;20028;-84
2023/08/31 09:15:07;;;;;;;94.72;51.28;;;;;;;;;;5006151;28;20066;-85
2023/08/31 09:17:44;;;;;;;10.88;6.10;;;;;;;;;;5001363;28;20061;-84
2023/08/31 09:20:10;;;;;;;4.55;2.80;;;;;;;;;;4994511;28;20043;-84
2023/08/31 09:22:35;;;;;;;5.60;3.85;;;;;;;;;;4975498;28;20702;-83
2023/08/31 09:25:02;;;;;;;6.00;3.30;;;;;;;;;;4984678;28;20056;-85
2023/08/31 09:27:28;;;;;;;12.07;3.10;;;;;;;;;;4987824;28;20030;-85
2023/08/31 09:29:57;;;;;;;3.67;1.60;;;;;;;;;;4996361;28;20026;-85
2023/08/31 09:32:23;;;;;;;2.92;1.10;;;;;;;;;;4990953;28;20062;-84
2023/08/31 09:34:49;;;;;;;5.32;2.53;;;;;;;;;;5003971;28;20049;-85
2023/08/31 09:37:16;;;;;;;6.95;2.47;;;;;;;;;;5001506;28;20045;-85
2023/08/31 09:39:41;;;;;;;2.10;1.60;;;;;;;;;;5001500;28;20022;-86
2023/08/31 09:42:07;;;;;;;5.35;1.98;;;;;;;;;;4989368;28;20026;-87
2023/08/31 09:44:33;;;;;;;2.60;1.50;;;;;;;;;;5002804;28;20447;-85
2023/08/31 09:46:59;;;;;;;2.63;1.35;;;;;;;;;;5013235;28;20033;-85
2023/08/31 09:49:25;;;;;;;3.35;1.20;;;;;;;;;;5017195;28;20038;-85
2023/08/31 09:51:51;;;;;;;1.50;1.25;;;;;;;;;;5003884;28;20030;-84
2023/08/31 09:54:18;;;;;;;1.60;1.20;;;;;;;;;;4995935;28;20076;-84
2023/08/31 09:56:46;;;;;;;1.83;1.20;;;;;;;;;;4995092;28;20038;-83
2023/08/31 09:59:12;;;;;;;1.60;1.10;;;;;;;;;;4997782;28;20505;-85
2023/08/31 10:01:39;;;;;;;2.00;1.10;;;;;;;;;;4996609;28;20038;-85
2023/08/31 10:04:08;;;;;;;2.95;1.33;;;;;;;;;;4999052;28;20035;-84
2023/08/31 10:06:35;;;;;;;1.45;1.02;;;;;;;;;;5003064;28;20010;-84
2023/08/31 10:09:01;;;;;;;1.42;1.20;;;;;;;;;;4995815;28;20038;-83
2023/08/31 10:11:27;;;;;;;1.27;1.00;;;;;;;;;;5006079;28;20061;-84
2023/08/31 10:13:54;;;;;;;2.13;1.10;;;;;;;;;;5002261;28;20037;-83
2023/08/31 10:16:21;;;;;;;2.08;1.25;;;;;;;;;;4997152;28;20043;-83
2023/08/31 10:18:47;;;;;;;2.55;1.27;;;;;;;;;;4994700;28;20042;-84
2023/08/31 10:21:17;;;;;;;8.13;1.70;;;;;;;;;;4998221;28;20046;-84
2023/08/31 10:23:46;;;;;;;1.85;1.30;;;;;;;;;;5000763;28;20038;-84
2023/08/31 10:26:12;;;;;;;1.60;1.20;;;;;;;;;;5016441;28;20034;-84
2023/08/31 10:28:42;;;;;;;6.10;1.20;;;;;;;;;;5005404;28;20061;-84
2023/08/31 10:31:21;;;;;;;2.10;1.40;;;;;;;;;;4985300;28;20117;-85
2023/08/31 10:33:55;;;;;;;3.97;1.30;;;;;;;;;;5007148;28;20117;-86
2023/08/31 10:36:21;;;;;;;2.30;1.30;;;;;;;;;;4987715;28;20120;-83
2023/08/31 10:38:55;;;;;;;2.72;1.20;;;;;;;;;;5000617;28;20072;-85
2023/08/31 10:41:21;;;;;;;1.98;1.20;;;;;;;;;;4989858;28;20104;-86
2023/08/31 10:43:51;;;;;;;1.98;1.27;;;;;;;;;;4999787;28;20034;-84
2023/08/31 10:46:28;;;;;;;2.13;1.20;;;;;;;;;;5003987;28;20038;-85
2023/08/31 10:48:55;;;;;;;2.83;1.10;;;;;;;;;;4998101;28;20042;-83
2023/08/31 10:51:31;;;;;;;2.45;1.20;;;;;;;;;;4978583;28;20038;-86
2023/08/31 10:54:20;;;;;;;1.80;1.25;;;;;;;;;;4999324;28;20037;-84
2023/08/31 10:57:06;;;;;;;1.63;1.10;;;;;;;;;;5008003;28;20064;-85
2023/08/31 10:59:51;;;;;;;1.50;1.10;;;;;;;;;;5006726;28;20033;-83
2023/08/31 11:02:35;;;;;;;1.40;1.10;;;;;;;;;;4994119;28;20064;-84
2023/08/31 11:05:14;;;;;;;1.70;1.10;;;;;;;;;;4995723;28;20029;-84
2023/08/31 11:07:41;;;;;;;3.03;1.30;;;;;;;;;;4978685;28;20053;-83
2023/08/31 11:10:23;;;;;;;1.63;1.10;;;;;;;;;;4977664;28;20029;-85
2023/08/31 11:12:50;;;;;;;1.60;1.30;;;;;;;;;;4980749;28;20039;-87
2023/08/31 11:15:24;;;;;;;1.80;1.20;;;;;;;;;;4982921;28;20038;-87
2023/08/31 11:17:53;;;;;;;;;;;;;;;;;;4994241;28;20034;-85
2023/08/31 11:20:21;;;;;;;1.55;1.10;;;;;;;;;;4973616;28;19914;-85
2023/08/31 11:22:54;;;;;;;2.80;1.30;;;;;;;;;;4982667;28;20469;-85
2023/08/31 11:25:21;;;;;;;;;;;;;;;;;;4990659;28;20113;-85
2023/08/31 11:28:14;;;;;;;2.20;1.20;;;;;;;;;;4983340;28;19917;-84
2023/08/31 11:30:43;;;;;;;2.67;1.42;;;;;;;;;;4985514;28;20046;-85
2023/08/31 11:33:11;;;;;;;1.15;1.00;;;;;;;;;;4990697;28;20377;-84
2023/08/31 11:35:43;;;;;;;1.65;1.10;;;;;;;;;;4977837;28;20061;-85
2023/08/31 11:38:09;;;;;;;1.73;1.10;;;;;;;;;;4991353;28;20468;-84
2023/08/31 11:40:35;;;;;;;1.98;1.27;;;;;;;;;;4992339;28;20038;-84
2023/08/31 11:43:03;;;;;;;1.48;1.10;;;;;;;;;;4967249;28;20039;-82
2023/08/31 11:45:30;;;;;;;3.50;1.10;;;;;;;;;;4995872;28;20470;-85
2023/08/31 11:47:56;;;;;;;5.13;1.20;;;;;;;;;;4989572;28;20038;-85
2023/08/31 11:50:24;;;;;;;1.73;1.02;;;;;;;;;;4992423;28;20472;-84
2023/08/31 11:52:50;;;;;;;2.38;1.20;;;;;;;;;;4993193;28;20144;-85
2023/08/31 11:55:17;;;;;;;1.77;1.15;;;;;;;;;;4987849;28;20038;-84
2023/08/31 11:57:50;;;;;;;1.48;1.10;;;;;;;;;;4995151;28;20479;-85
2023/08/31 12:00:21;;;;;;;2.30;1.20;;;;;;;;;;4995153;28;20049;-84
2023/08/31 12:03:00;;;;;;;1.90;1.20;;;;;;;;;;4996794;28;20281;-84
2023/08/31 12:05:31;;;;;;;2.25;1.30;;;;;;;;;;5001662;28;20070;-84
2023/08/31 12:07:56;;;;;;;1.77;1.20;;;;;;;;;;4999219;28;20053;-84
2023/08/31 12:10:24;;;;;;;1.77;1.20;;;;;;;;;;4992537;28;20043;-84
2023/08/31 12:12:52;;;;;;;1.88;1.30;;;;;;;;;;4988055;28;20041;-83
2023/08/31 12:15:18;;;;;;;2.33;1.30;;;;;;;;;;4977590;28;20042;-83
2023/08/31 12:17:46;;;;;;;2.40;1.40;;;;;;;;;;4993220;28;20062;-85
2023/08/31 12:20:12;;;;;;;1.83;1.10;;;;;;;;;;4990459;28;20040;-83
2023/08/31 12:22:37;;;;;;;2.17;1.23;;;;;;;;;;4965106;28;20043;-84
2023/08/31 12:25:03;;;;;;;1.70;1.17;;;;;;;;;;4992819;28;20042;-84
2023/08/31 12:27:30;;;;;;;1.55;1.13;;;;;;;;;;4985669;28;20039;-84
2023/08/31 12:29:57;;;;;;;2.60;1.17;;;;;;;;;;4965917;28;20045;-83
2023/08/31 12:32:22;;;;;;;2.80;1.10;;;;;;;;;;4999831;28;20037;-84
2023/08/31 12:34:48;;;;;;;2.13;1.20;;;;;;;;;;4993941;28;20034;-84
2023/08/31 12:37:13;;;;;;;2.03;1.20;;;;;;;;;;5008117;28;20050;-84
2023/08/31 12:39:42;;;;;;;2.22;1.30;;;;;;;;;;5005755;28;20029;-85
2023/08/31 12:42:07;;;;;;;1.83;1.27;;;;;;;;;;5001607;28;20057;-85
2023/08/31 12:44:33;;;;;;;1.95;1.20;;;;;;;;;;4985358;28;20400;-84
2023/08/31 12:46:58;;;;;;;1.40;1.20;;;;;;;;;;4990275;28;20042;-83
2023/08/31 12:49:23;;;;;;;3.00;1.60;;;;;;;;;;4997679;28;20058;-86
2023/08/31 12:51:50;;;;;;;2.55;1.35;;;;;;;;;;4993051;28;20042;-85
2023/08/31 12:54:16;;;;;;;1.65;1.23;;;;;;;;;;4994722;28;20038;-85
2023/08/31 12:56:41;;;;;;;3.65;1.25;;;;;;;;;;4998425;28;20029;-84
2023/08/31 12:59:07;;;;;;;2.55;1.40;;;;;;;;;;5003596;28;20520;-83
2023/08/31 13:01:33;;;;;;;2.20;1.30;;;;;;;;;;4996173;28;20049;-85
2023/08/31 13:03:59;;;;;;;1.67;1.30;;;;;;;;;;4998442;28;20066;-85
2023/08/31 13:06:26;;;;;;;2.15;1.40;;;;;;;;;;5008628;28;20499;-86
2023/08/31 13:08:52;;;;;;;2.05;1.17;;;;;;;;;;4995908;28;20034;-86
2023/08/31 13:11:23;;;;;;;3.13;1.40;;;;;;;;;;4994283;28;20039;-85
2023/08/31 13:13:49;;;;;;;1.90;1.30;;;;;;;;;;4998374;28;20124;-86
2023/08/31 13:16:14;;;;;;;2.28;1.23;;;;;;;;;;4963700;28;20058;-86
2023/08/31 13:18:39;;;;;;;1.73;1.25;;;;;;;;;;4993335;28;20039;-85
2023/08/31 13:21:08;;;;;;;2.72;1.30;;;;;;;;;;4985092;28;20054;-85
2023/08/31 13:23:33;;;;;;;3.38;1.50;;;;;;;;;;4995553;28;20038;-82
2023/08/31 13:25:59;;;;;;;1.92;1.40;;;;;;;;;;4991409;28;20045;-84
2023/08/31 13:28:24;;;;;;;2.22;1.30;;;;;;;;;;4987745;28;20034;-86
2023/08/31 13:30:56;;;;;;;5.13;1.50;;;;;;;;;;4985349;28;20037;-83
2023/08/31 13:33:22;;;;;;;3.08;1.30;;;;;;;;;;4999192;28;20042;-86
2023/08/31 13:35:48;;;;;;;3.25;1.42;;;;;;;;;;5002424;28;20045;-85
2023/08/31 13:38:13;;;;;;;5.63;1.60;;;;;;;;;;5001962;28;20041;-87
2023/08/31 13:40:39;;;;;;;2.47;1.50;;;;;;;;;;5001615;28;20046;-86
2023/08/31 13:43:04;;;;;;;2.00;1.33;;;;;;;;;;4990914;28;20039;-86
2023/08/31 13:45:31;;;;;;;3.03;1.50;;;;;;;;;;4996813;28;20039;-84
2023/08/31 13:47:59;;;;;;;1.67;1.23;;;;;;;;;;4995663;28;20041;-86
2023/08/31 13:50:25;;;;;;;4.38;1.60;;;;;;;;;;5009424;28;20027;-85
2023/08/31 13:52:50;;;;;;;3.90;1.50;;;;;;;;;;5004235;28;20450;-83
2023/08/31 13:55:16;;;;;;;1.98;1.30;;;;;;;;;;5000810;28;20426;-85
2023/08/31 13:57:42;;;;;;;2.95;1.40;;;;;;;;;;4983400;28;20030;-86
2023/08/31 14:00:09;;;;;;;2.10;1.35;;;;;;;;;;4995833;28;20042;-85
2023/08/31 14:02:38;;;;;;;5.25;1.30;;;;;;;;;;5005602;28;20511;-82
2023/08/31 14:05:08;;;;;;;2.55;1.50;;;;;;;;;;5001003;28;20035;-84
2023/08/31 14:07:34;;;;;;;2.00;1.30;;;;;;;;;;5003148;28;20026;-84
2023/08/31 14:10:00;;;;;;;4.30;1.33;;;;;;;;;;5006553;28;20068;-82
2023/08/31 14:12:25;;;;;;;2.22;1.48;;;;;;;;;;5005722;28;20097;-84
2023/08/31 14:14:52;;;;;;;2.38;1.40;;;;;;;;;;4984486;28;20030;-84
2023/08/31 14:17:18;;;;;;;3.88;1.70;;;;;;;;;;4990660;28;20038;-85
2023/08/31 14:19:44;;;;;;;3.38;1.40;;;;;;;;;;4991597;28;20068;-87
2023/08/31 14:22:09;;;;;;;2.65;1.40;;;;;;;;;;4993787;28;20066;-84
2023/08/31 14:24:36;;;;;;;2.30;1.45;;;;;;;;;;4991829;28;20038;-85
2023/08/31 14:27:03;;;;;;;3.00;1.30;;;;;;;;;;4985286;28;20409;-84
2023/08/31 14:29:28;;;;;;;2.78;1.40;;;;;;;;;;4980628;28;20104;-85
2023/08/31 14:31:55;;;;;;;4.63;1.63;;;;;;;;;;4990884;28;20487;-83
2023/08/31 14:34:21;;;;;;;3.08;1.60;;;;;;;;;;4967230;28;20042;-86
2023/08/31 14:36:47;;;;;;;4.78;1.58;;;;;;;;;;4969353;28;20042;-84
2023/08/31 14:39:12;;;;;;;2.80;1.35;;;;;;;;;;4993630;28;20049;-85
2023/08/31 14:41:38;;;;;;;4.13;1.70;;;;;;;;;;4995409;28;20113;-85
2023/08/31 14:44:03;;;;;;;3.80;1.48;;;;;;;;;;4997688;28;20492;-85